Time;durP1;ratioP1;P1;durP2;ratioP2;P2;SDS_P1;SDS_P2;PMS_P1;PMS_P2;Temp;Humidity;BMP_temperature;BMP_pressure;BME280_temperature;BME280_humidity;BME280_pressure;Samples;Min_cycle;Max_cycle;Signal;HPM_P1;HPM_P2
2023/07/23 00:00:47;;;;;;;3.47;2.10;;;19.60;85.00;;;18.18;75.90;100136.50;10289015;28;96746;-86
2023/07/23 00:05:51;;;;;;;3.33;2.00;;;19.50;85.60;;;18.03;76.63;100136.81;10285894;28;97049;-87
2023/07/23 00:10:57;;;;;;;2.40;1.60;;;19.30;86.40;;;17.87;77.82;100138.19;10270751;28;97795;-85
2023/07/23 00:16:01;;;;;;;5.50;1.90;;;19.20;87.20;;;17.80;78.78;100150.00;10268410;28;97343;-86
2023/07/23 00:21:04;;;;;;;3.90;1.83;;;19.00;87.50;;;17.73;78.56;100154.59;10290828;28;98081;-86
2023/07/23 00:26:08;;;;;;;5.13;1.90;;;19.00;87.90;;;17.65;78.55;100150.28;10276870;28;97004;-88
2023/07/23 00:31:11;;;;;;;2.47;1.75;;;18.90;88.20;;;17.54;79.00;100153.63;10285553;28;96608;-87
2023/07/23 00:36:16;;;;;;;3.53;2.00;;;18.80;88.70;;;17.46;79.57;100156.56;10272544;28;96704;-87
2023/07/23 00:41:20;;;;;;;5.25;2.05;;;18.70;89.20;;;17.37;79.82;100148.75;10268564;28;96673;-86
2023/07/23 00:46:24;;;;;;;3.55;1.98;;;18.60;89.70;;;17.37;80.48;100159.50;10265387;28;96657;-86
2023/07/23 00:51:32;;;;;;;4.65;2.30;;;18.60;90.00;;;17.42;81.09;100152.66;10272725;28;96800;-87
2023/07/23 00:56:37;;;;;;;4.10;1.67;;;18.70;90.30;;;17.47;80.74;100159.03;10273523;28;96905;-87
2023/07/23 01:01:41;;;;;;;2.78;1.98;;;18.70;90.30;;;17.43;81.42;100147.06;10286194;28;96925;-86
2023/07/23 01:06:46;;;;;;;3.40;2.00;;;18.70;90.50;;;17.33;81.41;100155.59;10288355;28;96620;-86
2023/07/23 01:11:52;;;;;;;2.50;1.75;;;18.60;90.70;;;17.26;82.39;100157.47;10277474;28;96629;-87
2023/07/23 01:16:58;;;;;;;3.50;2.17;;;18.50;91.10;;;17.19;83.39;100145.94;10287573;28;96531;-86
2023/07/23 01:22:05;;;;;;;3.80;2.35;;;18.40;91.50;;;17.17;83.80;100157.94;10283195;28;96900;-86
2023/07/23 01:27:09;;;;;;;3.47;2.38;;;18.40;91.70;;;17.13;84.07;100155.66;10302834;28;98620;-86
2023/07/23 01:32:13;;;;;;;3.95;2.58;;;18.30;91.90;;;17.09;84.23;100157.13;10274254;28;96717;-86
2023/07/23 01:37:18;;;;;;;3.38;2.10;;;18.30;92.20;;;17.06;85.04;100154.03;10300611;28;96579;-87
2023/07/23 01:42:22;;;;;;;3.50;2.53;;;18.30;92.50;;;16.97;85.62;100142.72;10283388;28;96665;-87
2023/07/23 01:47:26;;;;;;;3.38;1.95;;;18.20;92.90;;;16.94;86.29;100147.66;10284944;28;97648;-87
2023/07/23 01:52:29;;;;;;;4.70;2.60;;;18.10;93.20;;;16.89;86.92;100150.16;10286315;28;96398;-87
2023/07/23 01:57:33;;;;;;;4.05;2.42;;;18.10;93.70;;;16.87;86.78;100153.06;10284853;28;97442;-87
2023/07/23 02:02:37;;;;;;;41.72;3.72;;;18.10;93.80;;;16.87;87.81;100161.09;10284087;28;97664;-86
2023/07/23 02:07:41;;;;;;;3.53;2.28;;;18.10;94.00;;;16.87;88.07;100161.09;10300183;28;97440;-86
2023/07/23 02:12:44;;;;;;;3.10;2.30;;;18.10;94.20;;;16.82;87.87;100161.72;10275360;28;96631;-87
2023/07/23 02:17:49;;;;;;;3.67;2.20;;;18.10;94.50;;;16.74;88.23;100158.44;10298757;28;96622;-87
2023/07/23 02:22:53;;;;;;;2.97;2.13;;;18.00;94.70;;;16.65;87.87;100165.84;10279113;28;96629;-87
2023/07/23 02:27:57;;;;;;;3.28;2.10;;;17.90;95.00;;;16.58;88.27;100173.06;10289441;28;96782;-87
2023/07/23 02:33:00;;;;;;;5.18;2.92;;;17.80;95.50;;;16.56;89.25;100167.94;10276353;28;96550;-87
2023/07/23 02:38:04;;;;;;;4.25;2.53;;;17.70;95.80;;;16.56;89.46;100167.09;10294778;28;96610;-86
2023/07/23 02:43:12;;;;;;;2.70;2.17;;;17.70;96.00;;;16.57;89.96;100171.44;10287126;28;97049;-86
2023/07/23 02:48:15;;;;;;;3.83;2.33;;;17.80;96.40;;;16.57;90.15;100179.47;10275891;28;97266;-87
2023/07/23 02:53:20;;;;;;;3.40;2.08;;;17.80;96.40;;;16.52;90.16;100184.63;10271845;28;97297;-87
2023/07/23 02:58:24;;;;;;;4.55;2.35;;;17.70;96.70;;;16.44;90.71;100171.44;10295277;28;96701;-86
2023/07/23 03:03:27;;;;;;;3.42;2.30;;;17.60;97.00;;;16.35;91.38;100167.31;10288747;28;98132;-86
2023/07/23 03:08:31;;;;;;;4.85;3.78;;;17.50;97.40;;;16.26;91.92;100164.84;10275401;28;96672;-87
2023/07/23 03:13:35;;;;;;;3.63;2.55;;;17.40;97.80;;;16.20;92.65;100173.72;10265521;28;97841;-87
2023/07/23 03:18:39;;;;;;;4.80;2.67;;;17.40;98.30;;;16.15;93.36;100170.81;10292050;28;97674;-86
2023/07/23 03:23:42;;;;;;;4.28;3.00;;;17.40;98.80;;;16.08;94.07;100172.66;10273298;28;96573;-87
2023/07/23 03:28:46;;;;;;;3.53;2.63;;;17.30;99.10;;;16.05;94.13;100176.56;10269314;28;97843;-87
2023/07/23 03:33:50;;;;;;;4.65;2.83;;;17.20;99.40;;;16.02;94.94;100181.53;10271169;28;96530;-87
2023/07/23 03:38:53;;;;;;;5.60;2.85;;;17.20;99.80;;;16.00;95.36;100180.88;10276641;28;96759;-86
2023/07/23 03:43:57;;;;;;;4.45;2.63;;;17.20;99.90;;;16.01;96.04;100185.19;10275295;28;96683;-86
2023/07/23 03:49:01;;;;;;;4.13;2.85;;;17.20;99.90;;;16.03;97.00;100181.31;10274070;28;97409;-86
2023/07/23 03:54:04;;;;;;;5.25;2.83;;;17.20;99.90;;;16.05;97.54;100181.09;10289764;28;96683;-87
2023/07/23 03:59:08;;;;;;;5.57;2.92;;;17.30;99.90;;;16.15;98.13;100180.72;10274678;28;96713;-86
2023/07/23 04:04:12;;;;;;;6.85;3.08;;;17.30;99.90;;;16.21;98.61;100175.34;10254284;28;98211;-86
2023/07/23 04:09:15;;;;;;;3.85;2.60;;;17.40;99.90;;;16.31;98.88;100165.06;10266506;28;96722;-85
2023/07/23 04:14:18;;;;;;;5.03;2.97;;;17.50;99.90;;;16.45;98.87;100171.22;10274279;28;97523;-85
2023/07/23 04:19:23;;;;;;;4.93;2.72;;;17.70;99.90;;;16.63;99.36;100172.47;10247750;28;96619;-86
2023/07/23 04:24:26;;;;;;;3.63;2.70;;;17.80;99.90;;;16.81;99.22;100170.81;10271966;28;96657;-86
2023/07/23 04:29:30;;;;;;;4.03;2.90;;;18.00;99.90;;;17.02;99.74;100160.84;10291625;28;96595;-85
2023/07/23 04:34:34;;;;;;;15.20;3.28;;;18.20;99.90;;;17.25;99.90;100166.56;10287815;28;98324;-85
2023/07/23 04:39:37;;;;;;;6.93;2.92;;;18.50;99.90;;;17.47;98.37;100190.47;10288694;28;96842;-85
2023/07/23 04:44:41;;;;;;;4.38;2.72;;;18.70;99.90;;;17.65;95.32;100187.91;10253131;28;97150;-85
2023/07/23 04:49:44;;;;;;;18.90;3.83;;;18.90;99.90;;;17.68;92.71;100184.75;10279251;28;97353;-85
2023/07/23 04:54:48;;;;;;;17.67;2.80;;;19.00;99.90;;;17.75;91.85;100196.34;10287484;28;96439;-85
2023/07/23 04:59:54;;;;;;;12.75;3.45;;;19.00;99.90;;;17.81;92.14;100200.88;10272928;28;98235;-85
2023/07/23 05:04:58;;;;;;;18.35;3.97;;;19.10;99.90;;;17.91;92.62;100208.44;10271738;28;96988;-86
2023/07/23 05:10:02;;;;;;;14.48;3.47;;;19.10;99.90;;;18.03;93.12;100211.28;10270509;28;97949;-87
2023/07/23 05:15:13;;;;;;;5.47;3.90;;;19.20;99.90;;;18.09;91.56;100213.94;10271336;28;96668;-88
2023/07/23 05:20:17;;;;;;;3.80;3.17;;;19.40;99.90;;;18.20;91.75;100225.88;10250309;28;98626;-88
2023/07/23 05:25:21;;;;;;;4.25;3.17;;;19.40;99.90;;;18.24;90.54;100227.09;10264537;28;98264;-88
2023/07/23 05:30:25;;;;;;;5.50;3.10;;;19.50;99.90;;;18.28;89.80;100222.91;10257816;28;96640;-88
2023/07/23 05:35:28;;;;;;;4.65;2.55;;;19.50;99.90;;;18.37;88.32;100227.00;10290455;28;97091;-87
2023/07/23 05:40:36;;;;;;;4.13;3.35;;;19.60;99.90;;;18.53;88.60;100222.94;10272480;28;96480;-89
2023/07/23 05:45:40;;;;;;;5.22;3.10;;;19.70;99.90;;;18.71;86.55;100225.72;10270383;28;96536;-88
2023/07/23 05:50:43;;;;;;;3.97;2.58;;;19.90;99.90;;;18.89;85.32;100227.63;10272565;28;96616;-88
2023/07/23 05:55:47;;;;;;;5.00;3.15;;;20.10;99.90;;;19.12;85.61;100236.91;10271998;28;96577;-88
2023/07/23 06:00:51;;;;;;;4.57;3.05;;;20.30;99.70;;;19.34;83.50;100235.44;10293397;28;96594;-88
2023/07/23 06:05:54;;;;;;;3.53;2.80;;;20.50;99.20;;;19.56;82.64;100229.63;10296045;28;96791;-88
2023/07/23 06:10:58;;;;;;;3.55;2.58;;;20.70;99.10;;;19.80;81.66;100234.13;10279010;28;96801;-88
2023/07/23 06:16:02;;;;;;;5.75;3.40;;;20.90;98.80;;;20.06;80.73;100230.22;10304865;28;97246;-88
2023/07/23 06:21:06;;;;;;;4.63;2.63;;;21.20;98.40;;;20.29;79.47;100227.59;10277962;28;96561;-88
2023/07/23 06:26:09;;;;;;;4.22;2.40;;;21.50;98.00;;;20.58;79.16;100228.63;10278476;28;97282;-88
2023/07/23 06:31:14;;;;;;;2.58;2.10;;;21.70;97.80;;;20.85;77.29;100226.28;10276626;28;99032;-88
2023/07/23 06:36:18;;;;;;;5.22;2.88;;;22.00;97.30;;;21.06;76.45;100216.78;10289426;28;98127;-88
2023/07/23 06:41:21;;;;;;;4.63;2.55;;;22.30;96.90;;;21.25;74.59;100235.56;10257575;28;97850;-89
2023/07/23 06:46:25;;;;;;;4.68;2.30;;;22.50;96.20;;;21.43;74.90;100235.44;10294072;28;96663;-88
2023/07/23 06:51:29;;;;;;;4.35;2.53;;;22.60;96.20;;;21.67;74.03;100235.38;10295167;28;96945;-88
2023/07/23 06:56:33;;;;;;;3.88;2.55;;;22.90;96.10;;;21.88;72.62;100227.41;10280649;28;96971;-88
2023/07/23 07:01:37;;;;;;;3.58;2.47;;;23.10;95.40;;;22.06;71.06;100231.81;10275801;28;96699;-88
2023/07/23 07:06:40;;;;;;;17.45;3.45;;;23.30;95.00;;;22.24;70.43;100221.88;10274875;28;96413;-88
2023/07/23 07:11:44;;;;;;;4.80;2.95;;;23.50;94.60;;;22.37;69.97;100218.84;10294162;28;96553;-88
2023/07/23 07:16:48;;;;;;;5.05;2.50;;;23.60;93.90;;;22.43;68.14;100223.28;10292784;28;97529;-88
2023/07/23 07:21:51;;;;;;;20.85;4.18;;;23.70;93.40;;;22.62;69.60;100224.69;10272760;28;97541;-86
2023/07/23 07:26:55;;;;;;;6.60;2.70;;;23.90;93.60;;;22.86;68.32;100211.81;10291708;28;97136;-86
2023/07/23 07:31:58;;;;;;;5.82;2.50;;;24.10;93.40;;;23.08;68.16;100211.03;10274597;28;98008;-86
2023/07/23 07:37:02;;;;;;;3.90;2.50;;;24.30;93.10;;;23.31;67.79;100204.56;10294486;28;96380;-87
2023/07/23 07:42:06;;;;;;;4.15;2.90;;;24.50;92.90;;;23.52;66.63;100216.50;10275321;28;96600;-87
2023/07/23 07:47:10;;;;;;;6.00;3.05;;;24.70;92.40;;;23.66;65.24;100209.66;10287962;28;97488;-86
2023/07/23 07:52:13;;;;;;;5.35;2.83;;;24.90;92.00;;;23.89;65.26;100211.25;10274921;28;96607;-85
2023/07/23 07:57:17;;;;;;;3.25;2.50;;;25.10;91.60;;;24.12;62.85;100202.00;10272471;28;96703;-87
2023/07/23 08:02:21;;;;;;;4.07;2.80;;;25.40;90.60;;;24.44;61.45;100204.75;10288632;28;96734;-87
2023/07/23 08:07:25;;;;;;;3.53;2.60;;;25.60;89.90;;;24.70;59.53;100200.31;10269435;28;98546;-87
2023/07/23 08:12:29;;;;;;;5.05;2.88;;;25.80;88.10;;;24.90;57.94;100200.47;10258668;28;96682;-87
2023/07/23 08:17:34;;;;;;;6.10;3.25;;;26.00;86.20;;;25.01;57.08;100193.19;10258607;28;99884;-86
2023/07/23 08:22:38;;;;;;;4.55;3.15;;;26.20;84.80;;;25.13;56.11;100177.53;10268113;28;96798;-87
2023/07/23 08:27:43;;;;;;;4.70;2.65;;;26.30;83.70;;;25.27;54.42;100191.47;10275152;28;99033;-87
2023/07/23 08:32:50;;;;;;;3.15;2.45;;;26.40;82.00;;;25.42;53.79;100190.69;10266819;28;98869;-87
2023/07/23 08:37:55;;;;;;;4.50;2.85;;;26.60;80.80;;;25.52;52.10;100190.72;10268141;28;97697;-86
2023/07/23 08:43:53;;;;;;;3.95;2.60;;;26.70;79.10;;;25.70;52.28;100186.72;10268575;28;97082;-86
2023/07/23 08:49:04;;;;;;;3.88;2.78;;;26.90;78.90;;;25.94;51.38;100181.63;10288610;28;97602;-86
2023/07/23 08:54:09;;;;;;;3.72;2.83;;;27.10;77.10;;;26.05;50.87;100177.84;10247695;28;96669;-85
2023/07/23 08:59:13;;;;;;;5.80;2.63;;;27.20;76.60;;;26.04;50.20;100179.75;10286942;28;98577;-85
2023/07/23 09:04:16;;;;;;;4.10;2.55;;;27.30;75.80;;;26.11;49.98;100177.56;10287543;28;97494;-86
2023/07/23 09:09:20;;;;;;;3.67;2.85;;;27.30;76.00;;;26.36;49.74;100175.94;10279413;28;99003;-86
2023/07/23 09:14:23;;;;;;;3.50;2.45;;;27.50;74.70;;;26.61;47.94;100177.84;10265491;28;97990;-86
2023/07/23 09:19:29;;;;;;;3.95;2.53;;;27.80;73.50;;;26.72;46.31;100175.94;10287689;28;98208;-87
2023/07/23 09:24:33;;;;;;;4.63;2.65;;;27.90;71.80;;;26.88;44.10;100175.63;10288999;28;96674;-87
2023/07/23 09:29:41;;;;;;;4.25;2.38;;;28.10;68.80;;;27.13;44.66;100172.03;10289418;28;96586;-87
2023/07/23 09:34:48;;;;;;;3.95;2.20;;;28.30;68.40;;;27.32;42.31;100168.69;10278032;28;98615;-88
2023/07/23 09:39:56;;;;;;;3.00;2.40;;;28.50;65.30;;;27.47;43.48;100174.09;10296467;28;97581;-87
2023/07/23 09:45:01;;;;;;;6.75;2.30;;;28.60;66.00;;;27.50;41.80;100172.72;10275889;28;97103;-86
2023/07/23 09:50:09;;;;;;;4.00;2.50;;;28.70;65.00;;;27.62;41.93;100167.72;10290940;28;96809;-88
2023/07/23 09:55:13;;;;;;;4.07;2.33;;;28.70;63.50;;;27.77;41.53;100162.22;10277349;28;98524;-85
2023/07/23 10:00:18;;;;;;;3.40;2.47;;;29.00;63.90;;;27.86;40.17;100157.78;10276474;28;97478;-86
2023/07/23 10:05:25;;;;;;;3.72;2.55;;;29.10;61.30;;;27.89;38.64;100162.69;10280091;28;97018;-86
2023/07/23 10:10:29;;;;;;;2.75;2.25;;;29.10;60.10;;;27.87;39.55;100148.47;10296409;28;96989;-85
2023/07/23 10:15:36;;;;;;;2.88;2.10;;;29.00;60.40;;;27.80;38.98;100153.44;10277508;28;96708;-85
2023/07/23 10:20:43;;;;;;;4.18;2.83;;;29.00;60.60;;;27.97;40.22;100148.41;10279033;28;96751;-85
2023/07/23 10:25:47;;;;;;;3.00;2.20;;;29.00;61.30;;;28.27;39.63;100143.81;10273503;28;98698;-86
2023/07/23 10:31:22;;;;;;;4.03;2.47;;;29.40;60.50;;;28.48;38.41;100142.53;10273189;28;96722;-86
2023/07/23 10:36:25;;;;;;;5.82;3.10;;;29.60;59.50;;;28.65;38.32;100133.09;10278764;28;97861;-86
2023/07/23 10:41:53;;;;;;;2.72;2.28;;;29.80;58.60;;;28.69;35.79;100137.69;10274256;28;96717;-85
2023/07/23 10:46:58;;;;;;;3.63;2.60;;;29.90;56.20;;;28.56;37.54;100134.84;10289771;28;96667;-86
2023/07/23 10:52:20;;;;;;;3.00;2.30;;;29.70;57.50;;;28.56;37.57;100132.09;10270075;28;98284;-85
2023/07/23 10:57:24;;;;;;;3.90;2.50;;;29.80;57.90;;;28.67;38.47;100123.53;10274923;28;96657;-86
2023/07/23 11:02:28;;;;;;;4.10;3.42;;;29.80;58.50;;;28.91;37.72;100112.59;10275239;28;97340;-86
2023/07/23 11:07:32;;;;;;;3.65;2.50;;;30.10;57.50;;;29.03;36.12;100107.53;10269210;28;98260;-87
2023/07/23 11:12:36;;;;;;;5.07;2.47;;;30.30;56.60;;;29.00;35.71;100093.63;10288974;28;98553;-85
2023/07/23 11:17:40;;;;;;;2.88;2.40;;;30.20;56.60;;;28.97;36.40;100094.22;10283941;28;98576;-85
2023/07/23 11:22:58;;;;;;;2.85;2.28;;;30.20;56.40;;;29.10;36.99;100089.97;10273515;28;96927;-87
2023/07/23 11:28:02;;;;;;;2.67;2.20;;;30.20;56.50;;;29.10;35.61;100081.75;10284614;28;97574;-85
2023/07/23 11:33:06;;;;;;;3.45;2.67;;;30.30;55.80;;;29.13;36.34;100081.16;10281894;28;97323;-85
2023/07/23 11:38:09;;;;;;;4.63;2.20;;;30.20;56.30;;;29.35;35.22;100067.72;10265353;28;96881;-85
2023/07/23 11:43:13;;;;;;;8.30;2.60;;;30.50;55.70;;;29.51;36.21;100060.91;10275090;28;98164;-85
2023/07/23 11:48:20;;;;;;;3.95;2.20;;;30.60;56.30;;;29.76;35.93;100056.16;10286842;28;97098;-85
2023/07/23 11:53:35;;;;;;;3.70;2.53;;;30.90;55.70;;;29.91;34.48;100046.88;10264171;28;96709;-87
2023/07/23 11:58:41;;;;;;;3.90;2.55;;;31.10;54.00;;;29.99;34.78;100048.91;10277980;28;96744;-86
2023/07/23 12:03:46;;;;;;;2.88;2.30;;;31.10;54.70;;;30.10;34.74;100045.72;10290079;28;96542;-86
2023/07/23 12:08:51;;;;;;;4.45;2.35;;;31.20;54.60;;;30.18;35.07;100032.47;10252337;28;99202;-86
2023/07/23 12:13:57;;;;;;;3.45;2.40;;;31.30;54.50;;;30.24;34.53;100034.81;10261725;28;98387;-87
2023/07/23 12:19:18;;;;;;;3.30;2.42;;;31.40;54.60;;;30.02;33.23;100031.88;10269349;28;97186;-90
2023/07/23 12:24:27;;;;;;;2.97;2.30;;;31.30;52.80;;;30.21;34.07;100029.09;10261213;28;97558;-89
2023/07/23 12:29:31;;;;;;;3.47;2.58;;;31.30;53.10;;;30.29;33.45;100022.94;10288778;28;96588;-92
2023/07/23 12:34:35;;;;;;;3.05;2.40;;;31.40;52.80;;;30.50;33.84;100009.63;10273665;28;96664;-88
2023/07/23 12:39:39;;;;;;;3.33;2.67;;;31.60;52.80;;;30.67;33.24;100011.78;10272266;28;96809;-87
2023/07/23 12:44:42;;;;;;;4.70;2.17;;;31.70;52.50;;;30.75;31.59;100002.84;10283104;28;98409;-88
2023/07/23 12:49:46;;;;;;;2.20;1.83;;;32.00;51.50;;;30.87;32.30;99992.16;10284238;28;97420;-88
2023/07/23 12:54:50;;;;;;;2.42;2.10;;;32.10;51.60;;;31.11;31.62;99997.38;10267029;28;96774;-89
2023/07/23 12:59:54;;;;;;;3.53;2.35;;;32.30;50.90;;;31.23;31.16;99994.91;10263670;28;97328;-88
2023/07/23 13:04:57;;;;;;;3.20;2.30;;;32.60;50.60;;;31.54;31.70;99994.19;10268002;28;96759;-89
2023/07/23 13:10:02;;;;;;;3.38;2.50;;;33.10;50.30;;;31.89;31.57;99978.78;10242237;28;98023;-88
2023/07/23 13:15:06;;;;;;;3.17;2.45;;;33.60;50.10;;;32.04;30.12;99981.13;10247790;28;97634;-92
2023/07/23 13:20:12;;;;;;;3.13;2.40;;;33.80;49.00;;;32.10;30.13;99973.56;10251113;28;97287;-90
2023/07/23 13:25:16;;;;;;;4.70;2.20;;;34.10;48.60;;;32.40;31.41;99967.22;10231937;28;97110;-88
2023/07/23 13:30:19;;;;;;;2.92;2.40;;;34.50;49.50;;;32.75;30.95;99968.13;10243497;28;98084;-90
2023/07/23 13:35:23;;;;;;;2.67;2.30;;;34.90;49.10;;;33.28;30.70;99957.94;10220997;28;98788;-89
2023/07/23 13:40:26;;;;;;;3.38;2.40;;;35.00;49.40;;;33.62;29.57;99956.31;10240016;28;98635;-91
2023/07/23 13:45:31;;;;;;;3.45;2.47;;;35.10;48.40;;;33.59;30.27;99954.19;10239481;28;98163;-88
2023/07/23 13:50:34;;;;;;;2.88;2.22;;;34.90;49.40;;;33.84;31.30;99947.03;10242765;28;96617;-89
2023/07/23 13:55:53;;;;;;;3.28;2.28;;;34.80;50.40;;;33.93;30.61;99939.56;10235776;28;97315;-95
2023/07/23 14:00:56;;;;;;;3.30;2.28;;;34.70;50.10;;;33.54;30.05;99946.94;10249454;28;97481;-89
2023/07/23 14:06:00;;;;;;;3.85;2.38;;;34.30;49.80;;;33.27;30.61;99935.09;10251506;28;98246;-95
2023/07/23 14:11:03;;;;;;;3.58;2.85;;;34.10;49.80;;;32.78;30.89;99932.81;10264182;28;96522;-90
2023/07/23 14:16:07;;;;;;;3.08;2.20;;;33.70;50.10;;;32.56;31.62;99920.81;10267350;28;96659;-94
2023/07/23 14:21:10;;;;;;;3.15;2.22;;;33.40;50.50;;;32.48;32.23;99929.88;10275160;28;96722;-90
2023/07/23 14:26:15;;;;;;;3.75;2.40;;;33.40;50.90;;;32.23;31.70;99917.66;10291428;28;96588;-86
2023/07/23 14:31:19;;;;;;;2.70;2.20;;;33.30;50.40;;;32.18;32.20;99921.34;10262353;28;96627;-89
2023/07/23 14:36:22;;;;;;;3.65;2.38;;;33.30;50.30;;;32.16;31.95;99920.88;10291061;28;96783;-86
2023/07/23 14:41:26;;;;;;;3.28;2.20;;;33.50;50.30;;;32.39;32.63;99912.56;10255283;28;97120;-87
2023/07/23 14:46:30;;;;;;;2.97;2.28;;;33.90;50.60;;;32.51;31.44;99907.25;10269441;28;96679;-87
2023/07/23 14:51:34;;;;;;;4.88;2.40;;;34.40;49.60;;;32.74;32.04;99897.69;10295219;28;96620;-87
2023/07/23 14:56:37;;;;;;;3.25;2.53;;;34.70;49.70;;;33.09;30.95;99891.41;10277127;28;96897;-87
2023/07/23 15:01:41;;;;;;;3.17;2.05;;;35.20;48.20;;;33.20;30.66;99896.25;10253592;28;96506;-87
2023/07/23 15:06:47;;;;;;;3.67;2.17;;;35.50;48.20;;;33.67;30.40;99879.81;10300490;28;98512;-85
2023/07/23 15:11:52;;;;;;;2.47;2.05;;;35.70;48.10;;;34.03;28.37;99881.31;10277185;28;97395;-88
2023/07/23 15:16:55;;;;;;;2.40;2.20;;;36.10;47.30;;;34.20;29.13;99883.97;10275891;28;97708;-84
2023/07/23 15:21:59;;;;;;;2.80;2.33;;;36.10;47.20;;;34.48;28.28;99877.97;10293736;28;97247;-85
2023/07/23 15:27:06;;;;;;;3.17;2.50;;;36.20;46.40;;;34.44;28.06;99882.56;10277818;28;96536;-85
2023/07/23 15:32:10;;;;;;;2.60;1.90;;;36.30;46.50;;;34.57;27.56;99875.97;10276856;28;96636;-85
2023/07/23 15:37:14;;;;;;;3.00;2.40;;;36.40;46.10;;;34.63;27.24;99868.28;10274026;28;98440;-85
2023/07/23 15:42:17;;;;;;;2.90;2.35;;;36.50;45.20;;;34.59;26.36;99868.16;10272438;28;96761;-85
2023/07/23 15:47:21;;;;;;;4.13;2.28;;;36.40;44.50;;;34.66;27.65;99873.94;10256285;28;96777;-84
2023/07/23 15:52:24;;;;;;;3.72;2.10;;;36.40;45.20;;;34.69;27.42;99866.94;10253715;28;97422;-83
2023/07/23 15:57:28;;;;;;;3.47;2.63;;;36.50;45.30;;;34.52;27.35;99854.88;10289445;28;97064;-85
2023/07/23 16:02:31;;;;;;;5.05;2.70;;;36.20;45.20;;;33.97;27.02;99855.88;10290888;28;97832;-85
2023/07/23 16:07:35;;;;;;;5.18;2.53;;;35.80;44.90;;;33.63;28.67;99854.03;10288832;28;97183;-84
2023/07/23 16:12:39;;;;;;;3.13;2.20;;;35.10;46.00;;;33.44;29.17;99845.38;10247635;28;98443;-86
2023/07/23 16:17:42;;;;;;;3.15;2.85;;;34.70;46.50;;;33.37;28.69;99845.03;10272425;28;96678;-88
2023/07/23 16:22:46;;;;;;;3.65;2.78;;;34.50;46.70;;;32.89;28.83;99840.59;10259108;28;96914;-85
2023/07/23 16:27:50;;;;;;;2.78;2.33;;;34.10;46.70;;;32.65;29.37;99830.06;10288027;28;96626;-87
2023/07/23 16:32:54;;;;;;;4.03;2.47;;;33.80;47.20;;;32.40;30.06;99829.72;10274599;28;96517;-85
2023/07/23 16:38:01;;;;;;;4.55;2.20;;;33.60;47.50;;;32.28;31.17;99825.97;10268695;28;98089;-86
2023/07/23 16:43:06;;;;;;;2.60;2.40;;;33.50;48.50;;;32.16;31.28;99832.09;10267691;28;97056;-85
2023/07/23 16:48:10;;;;;;;4.20;2.30;;;33.40;48.40;;;31.89;31.45;99820.22;10287951;28;96654;-86
2023/07/23 16:53:21;;;;;;;3.58;2.30;;;33.30;48.40;;;31.54;31.39;99824.75;10263710;28;98086;-84
2023/07/23 16:58:28;;;;;;;4.43;2.47;;;32.90;48.50;;;31.12;31.73;99835.16;10273390;28;96688;-84
2023/07/23 17:03:32;;;;;;;2.70;2.17;;;32.40;48.70;;;30.62;32.51;99835.25;10280070;28;98188;-85
2023/07/23 17:08:35;;;;;;;3.30;2.20;;;31.90;49.00;;;30.17;33.07;99828.03;10289987;28;97189;-83
2023/07/23 17:13:40;;;;;;;3.35;2.10;;;31.40;49.40;;;29.73;33.52;99840.41;10258916;28;96497;-83
2023/07/23 17:18:44;;;;;;;3.20;2.25;;;30.90;49.80;;;29.32;34.44;99838.41;10287761;28;96528;-84
2023/07/23 17:23:49;;;;;;;3.95;2.42;;;30.40;50.30;;;28.96;35.28;99836.28;10296198;28;96742;-83
2023/07/23 17:28:52;;;;;;;3.55;2.40;;;30.10;51.40;;;28.74;36.13;99836.06;10268713;28;96798;-83
2023/07/23 17:33:56;;;;;;;2.78;2.30;;;29.80;52.30;;;28.54;37.17;99837.97;10272338;28;97244;-83
2023/07/23 17:39:00;;;;;;;5.80;1.88;;;29.60;52.70;;;28.34;37.88;99840.19;10286430;28;98498;-84
2023/07/23 17:44:04;;;;;;;3.17;2.35;;;29.40;53.10;;;28.12;37.42;99838.00;10277881;28;97769;-85
2023/07/23 17:49:15;;;;;;;2.80;2.10;;;29.20;53.20;;;27.90;37.70;99830.38;10260865;28;96944;-86
2023/07/23 17:54:20;;;;;;;5.72;2.28;;;29.00;53.20;;;27.73;38.07;99836.28;10238642;28;96624;-84
2023/07/23 17:59:23;;;;;;;3.75;2.83;;;28.80;53.90;;;27.53;39.70;99837.28;10275951;28;96569;-84
2023/07/23 18:04:27;;;;;;;2.78;2.13;;;28.50;55.20;;;27.22;40.07;99842.22;10279405;28;96879;-84
2023/07/23 18:09:31;;;;;;;3.05;1.98;;;28.20;55.00;;;26.98;40.39;99841.28;10267550;28;96663;-83
2023/07/23 18:14:35;;;;;;;2.80;2.10;;;28.00;55.90;;;26.78;41.45;99834.91;10296507;28;96551;-84
2023/07/23 18:19:41;;;;;;;3.20;2.22;;;27.80;56.70;;;26.51;41.41;99834.53;10277532;28;96572;-83
2023/07/23 18:24:44;;;;;;;3.53;2.25;;;27.50;56.70;;;26.23;41.94;99831.41;10278125;28;98076;-84
2023/07/23 18:29:48;;;;;;;3.00;2.17;;;27.30;57.00;;;25.99;42.58;99839.41;10276621;28;96661;-84
2023/07/23 18:34:52;;;;;;;4.35;2.40;;;27.00;57.40;;;25.76;43.25;99849.00;10277271;28;96849;-84
2023/07/23 18:39:55;;;;;;;3.13;2.38;;;26.80;57.80;;;25.54;43.65;99849.28;10297130;28;97690;-83
2023/07/23 18:44:59;;;;;;;4.80;2.20;;;26.60;58.30;;;25.36;44.26;99841.72;10267545;28;98282;-83
2023/07/23 18:50:03;;;;;;;3.78;2.60;;;26.40;59.40;;;25.20;45.59;99842.84;10275092;28;96632;-83
2023/07/23 18:55:07;;;;;;;3.22;2.20;;;26.20;59.90;;;25.02;46.20;99846.88;10297041;28;97928;-83
2023/07/23 19:00:11;;;;;;;3.13;1.95;;;26.00;60.50;;;24.80;46.87;99853.38;10279854;28;96603;-83
2023/07/23 19:05:15;;;;;;;3.22;2.25;;;25.80;61.30;;;24.63;47.41;99844.66;10278425;28;96494;-83
2023/07/23 19:10:19;;;;;;;3.50;2.45;;;25.60;61.60;;;24.54;48.36;99846.28;10272112;28;96804;-83
2023/07/23 19:15:22;;;;;;;4.45;2.50;;;25.50;62.40;;;24.47;48.35;99843.81;10254251;28;96857;-83
2023/07/23 19:20:26;;;;;;;4.65;3.00;;;25.40;62.70;;;24.39;49.40;99840.78;10292717;28;96515;-83
2023/07/23 19:25:29;;;;;;;4.53;2.92;;;25.40;63.50;;;24.29;50.70;99866.81;10282353;28;97055;-83
2023/07/23 19:30:33;;;;;;;4.65;2.90;;;25.30;64.00;;;24.10;51.06;99865.63;10291148;28;97545;-83
2023/07/23 19:35:37;;;;;;;3.92;2.50;;;25.10;64.70;;;23.86;53.04;99867.16;10276373;28;96470;-83
2023/07/23 19:40:41;;;;;;;3.72;2.63;;;24.80;66.00;;;23.58;53.97;99857.47;10274346;28;96593;-83
2023/07/23 19:45:45;;;;;;;3.83;3.00;;;24.60;67.00;;;23.41;55.29;99858.44;10273719;28;96650;-83
2023/07/23 19:50:50;;;;;;;4.47;2.75;;;24.30;68.10;;;23.26;56.10;99865.63;10260314;28;96619;-83
2023/07/23 19:55:54;;;;;;;5.63;2.65;;;24.10;68.70;;;23.09;57.62;99877.44;10291545;28;96544;-83
2023/07/23 20:00:58;;;;;;;4.38;2.65;;;24.00;69.70;;;22.96;58.32;99883.28;10292211;28;97051;-83
2023/07/23 20:06:02;;;;;;;4.55;2.90;;;23.90;70.80;;;22.85;60.02;99887.78;10274886;28;96682;-83
2023/07/23 20:11:05;;;;;;;5.15;2.85;;;23.80;72.00;;;22.71;60.61;99891.94;10274040;28;96560;-83
2023/07/23 20:16:09;;;;;;;4.63;3.00;;;23.70;72.40;;;22.59;61.28;99892.09;10287937;28;98245;-83
2023/07/23 20:21:12;;;;;;;4.93;2.97;;;23.60;72.80;;;22.42;62.72;99889.44;10270455;28;98938;-84
2023/07/23 20:26:19;;;;;;;4.90;2.53;;;23.40;73.90;;;22.30;63.69;99899.59;10289961;28;96659;-86
2023/07/23 20:31:23;;;;;;;4.97;2.88;;;23.30;74.60;;;22.16;64.72;99904.56;10284594;28;98575;-85
2023/07/23 20:36:27;;;;;;;4.25;3.20;;;23.10;75.60;;;22.08;65.32;99898.75;10267533;28;96711;-85
2023/07/23 20:41:34;;;;;;;3.58;2.33;;;23.00;76.60;;;22.00;65.97;99894.56;10274555;28;96688;-86
2023/07/23 20:46:38;;;;;;;3.60;2.38;;;23.00;77.00;;;21.94;67.83;99905.59;10273768;28;97398;-87
2023/07/23 20:51:42;;;;;;;5.97;3.03;;;22.80;77.60;;;21.83;67.97;99899.22;10276667;28;96700;-87
2023/07/23 20:56:46;;;;;;;3.85;2.95;;;22.70;78.00;;;21.76;69.24;99893.97;10291792;28;98848;-87